Time;durP1;ratioP1;P1;durP2;ratioP2;P2;SDS_P1;SDS_P2;PMS_P1;PMS_P2;Temp;Humidity;BMP_temperature;BMP_pressure;BME280_temperature;BME280_humidity;BME280_pressure;Samples;Min_cycle;Max_cycle;Signal;HPM_P1;HPM_P2
2023/06/24 00:00:06;;;;;;;2.10;1.90;;;22.80;95.00;;;;;;5099331;27;20221;-76
2023/06/24 00:02:33;;;;;;;2.28;2.08;;;22.80;94.80;;;;;;5102254;27;20209;-76
2023/06/24 00:05:03;;;;;;;2.55;2.35;;;22.70;95.10;;;;;;5099902;27;20682;-77
2023/06/24 00:07:30;;;;;;;2.10;1.98;;;22.70;95.30;;;;;;5101532;27;20245;-76
2023/06/24 00:09:57;;;;;;;3.45;2.15;;;22.70;95.40;;;;;;5111577;27;20220;-76
2023/06/24 00:12:24;;;;;;;2.42;2.15;;;22.70;95.40;;;;;;5121818;27;20227;-77
2023/06/24 00:14:51;;;;;;;2.00;1.90;;;22.60;95.60;;;;;;5121244;27;20192;-76
2023/06/24 00:17:18;;;;;;;2.30;2.10;;;22.60;95.50;;;;;;5107778;27;21280;-76
2023/06/24 00:19:45;;;;;;;1.90;1.80;;;22.50;95.50;;;;;;5101988;27;20749;-77
2023/06/24 00:22:13;;;;;;;2.17;1.98;;;22.60;95.30;;;;;;5117812;27;20197;-77
2023/06/24 00:24:42;;;;;;;1.70;1.60;;;22.60;95.50;;;;;;5108851;27;20197;-77
2023/06/24 00:27:09;;;;;;;2.10;2.00;;;22.60;95.60;;;;;;5102472;27;20201;-76
2023/06/24 00:29:36;;;;;;;2.40;2.05;;;22.60;95.60;;;;;;5102190;27;20672;-76
2023/06/24 00:32:03;;;;;;;1.90;1.73;;;22.70;96.00;;;;;;5100107;27;20301;-76
2023/06/24 00:34:30;;;;;;;2.10;1.90;;;22.60;95.50;;;;;;5104636;27;20209;-77
2023/06/24 00:36:57;;;;;;;2.30;2.10;;;22.60;95.50;;;;;;5104473;27;20261;-77
2023/06/24 00:39:25;;;;;;;1.98;1.88;;;22.50;95.30;;;;;;5101204;27;20243;-77
2023/06/24 00:41:53;;;;;;;2.25;2.05;;;22.40;95.60;;;;;;5100241;27;20308;-76
2023/06/24 00:44:20;;;;;;;2.17;1.98;;;22.40;95.40;;;;;;5105811;27;20300;-76
2023/06/24 00:46:49;;;;;;;1.80;1.70;;;22.40;95.60;;;;;;5100142;27;20279;-77
2023/06/24 00:49:16;;;;;;;2.13;1.70;;;22.30;95.60;;;;;;5104476;27;20220;-75
2023/06/24 00:51:47;;;;;;;1.80;1.70;;;22.30;95.70;;;;;;5105252;27;20269;-76
2023/06/24 00:54:14;;;;;;;2.00;1.90;;;22.30;95.70;;;;;;5104477;27;20319;-78
2023/06/24 00:56:43;;;;;;;2.60;1.70;;;22.30;95.90;;;;;;5103072;27;20221;-77
2023/06/24 00:59:13;;;;;;;2.13;2.03;;;22.40;96.00;;;;;;5102458;27;20230;-77
2023/06/24 01:01:40;;;;;;;2.03;1.90;;;22.30;95.80;;;;;;5100478;28;20224;-76
2023/06/24 01:04:08;;;;;;;1.90;1.80;;;22.30;95.70;;;;;;5100232;27;20292;-76
2023/06/24 01:06:43;;;;;;;3.65;2.13;;;22.30;95.70;;;;;;5104373;27;20288;-77
2023/06/24 01:09:10;;;;;;;2.50;2.13;;;22.30;95.90;;;;;;5098632;27;20842;-76
2023/06/24 01:11:38;;;;;;;2.00;1.90;;;22.40;95.80;;;;;;5101578;27;20208;-75
2023/06/24 01:14:06;;;;;;;1.85;1.70;;;22.40;95.60;;;;;;5102798;27;20201;-76
2023/06/24 01:16:45;;;;;;;2.17;1.98;;;22.40;95.50;;;;;;5100327;27;20675;-76
2023/06/24 01:19:33;;;;;;;2.20;2.00;;;22.40;95.40;;;;;;5101208;27;20860;-77
2023/06/24 01:22:11;;;;;;;2.05;1.83;;;22.40;95.10;;;;;;5100478;27;20942;-76
2023/06/24 01:24:58;;;;;;;1.83;1.73;;;22.40;95.30;;;;;;5099688;27;20279;-76
2023/06/24 01:27:54;;;;;;;1.80;1.70;;;22.50;94.90;;;;;;5100586;27;20865;-76
2023/06/24 01:30:42;;;;;;;1.70;1.60;;;22.40;94.70;;;;;;5101574;27;20225;-77
2023/06/24 01:33:14;;;;;;;1.63;1.52;;;22.30;94.90;;;;;;5101613;27;20817;-76
2023/06/24 01:35:43;;;;;;;1.70;1.60;;;22.30;95.20;;;;;;5104440;27;20365;-77
2023/06/24 01:38:20;;;;;;;1.70;1.60;;;22.20;95.20;;;;;;5096790;27;20203;-76
2023/06/24 01:40:48;;;;;;;1.88;1.77;;;22.20;95.30;;;;;;5102049;27;20287;-77
2023/06/24 01:43:18;;;;;;;1.83;1.73;;;22.20;95.40;;;;;;5098138;27;20289;-74
2023/06/24 01:45:50;;;;;;;1.90;1.80;;;22.30;95.40;;;;;;5097529;27;20288;-77
2023/06/24 01:48:24;;;;;;;1.45;1.35;;;22.30;95.60;;;;;;5102664;27;20204;-77
2023/06/24 01:50:58;;;;;;;1.50;1.40;;;22.30;95.50;;;;;;5104473;27;20205;-76
2023/06/24 01:53:27;;;;;;;1.65;1.55;;;22.30;95.30;;;;;;5095755;28;20250;-75
2023/06/24 01:55:55;;;;;;;1.52;1.42;;;22.20;95.30;;;;;;5101471;27;20726;-77
2023/06/24 01:58:24;;;;;;;1.40;1.30;;;22.20;95.60;;;;;;5100493;27;20196;-77
2023/06/24 02:00:52;;;;;;;1.40;1.30;;;22.20;95.60;;;;;;5098304;27;20200;-76
2023/06/24 02:03:23;;;;;;;1.40;1.30;;;22.10;95.50;;;;;;5100485;27;20200;-76
2023/06/24 02:05:52;;;;;;;2.08;1.42;;;22.10;95.60;;;;;;5099447;27;20296;-76
2023/06/24 02:08:22;;;;;;;1.50;1.40;;;22.10;95.70;;;;;;5099929;27;20224;-77
2023/06/24 02:10:51;;;;;;;1.40;1.30;;;22.10;95.60;;;;;;5099050;27;20303;-76
2023/06/24 02:13:19;;;;;;;1.20;1.10;;;22.10;95.50;;;;;;5099210;27;20266;-76
2023/06/24 02:15:48;;;;;;;1.33;1.23;;;22.10;95.60;;;;;;5119598;27;20189;-76
2023/06/24 02:18:17;;;;;;;1.70;1.40;;;22.00;95.40;;;;;;5108522;27;20222;-77
2023/06/24 02:20:47;;;;;;;1.30;1.20;;;22.00;95.60;;;;;;5098798;28;20285;-76
2023/06/24 02:23:15;;;;;;;1.33;1.23;;;21.90;95.50;;;;;;5097730;27;20196;-76
2023/06/24 02:25:43;;;;;;;1.50;1.15;;;21.90;95.70;;;;;;5097209;28;20236;-76
2023/06/24 02:28:11;;;;;;;1.60;1.50;;;21.90;95.50;;;;;;5098161;28;20245;-75
2023/06/24 02:30:39;;;;;;;1.40;1.30;;;21.90;95.40;;;;;;5100590;28;20292;-76
2023/06/24 02:33:07;;;;;;;1.30;1.20;;;21.80;95.60;;;;;;5098765;28;20208;-76
2023/06/24 02:35:34;;;;;;;1.00;1.00;;;21.80;95.70;;;;;;5094371;28;20205;-76
2023/06/24 02:38:03;;;;;;;1.17;1.13;;;21.80;95.80;;;;;;5098010;27;20194;-76
2023/06/24 02:40:30;;;;;;;1.20;1.20;;;21.70;95.70;;;;;;5099480;28;20223;-76
2023/06/24 02:42:58;;;;;;;1.00;1.00;;;21.60;95.90;;;;;;5099184;28;20678;-75
2023/06/24 02:45:25;;;;;;;1.17;1.10;;;21.60;96.10;;;;;;5099099;28;22821;-75
2023/06/24 02:47:53;;;;;;;1.30;1.20;;;21.70;96.10;;;;;;5105564;28;20246;-76
2023/06/24 02:50:22;;;;;;;1.17;1.08;;;21.70;96.00;;;;;;5095861;28;20228;-75
2023/06/24 02:52:49;;;;;;;1.10;1.10;;;21.70;96.00;;;;;;5101470;27;20848;-76
2023/06/24 02:55:18;;;;;;;1.10;1.10;;;21.60;96.10;;;;;;5101730;27;20205;-76
2023/06/24 02:57:46;;;;;;;1.05;0.95;;;21.70;96.30;;;;;;5103544;27;20834;-76
2023/06/24 03:00:14;;;;;;;0.80;0.80;;;21.70;96.40;;;;;;5101011;27;20247;-77
2023/06/24 03:02:43;;;;;;;1.20;1.10;;;21.70;96.60;;;;;;5104205;27;20261;-76
2023/06/24 03:05:11;;;;;;;1.15;1.05;;;21.70;96.00;;;;;;5099092;27;20203;-76
2023/06/24 03:07:39;;;;;;;1.20;1.10;;;21.70;96.00;;;;;;5105564;27;20759;-76
2023/06/24 03:10:07;;;;;;;1.00;1.00;;;21.60;96.10;;;;;;5102356;27;20245;-77
2023/06/24 03:12:35;;;;;;;1.15;1.05;;;21.60;96.40;;;;;;5104896;27;20216;-75
2023/06/24 03:15:02;;;;;;;1.30;0.90;;;21.70;96.90;;;;;;5104919;27;20229;-77
2023/06/24 03:17:30;;;;;;;0.80;0.80;;;21.80;96.10;;;;;;5103273;27;20201;-76
2023/06/24 03:19:57;;;;;;;1.33;1.10;;;21.80;96.30;;;;;;5104611;27;20303;-76
2023/06/24 03:22:25;;;;;;;0.80;0.80;;;21.80;96.30;;;;;;5103271;27;20236;-76
2023/06/24 03:24:52;;;;;;;0.93;0.93;;;21.80;96.10;;;;;;5100660;27;22380;-76
2023/06/24 03:27:19;;;;;;;0.93;0.93;;;21.80;96.20;;;;;;5104183;27;20207;-75
2023/06/24 03:29:48;;;;;;;1.02;1.02;;;21.80;96.30;;;;;;5107537;27;20245;-76
2023/06/24 03:32:15;;;;;;;0.90;0.90;;;21.90;96.80;;;;;;5099017;27;20297;-76
2023/06/24 03:34:42;;;;;;;0.93;0.93;;;21.90;96.10;;;;;;5105088;27;20208;-76
2023/06/24 03:37:09;;;;;;;0.90;0.90;;;21.80;96.00;;;;;;5104785;27;20698;-76
2023/06/24 03:39:36;;;;;;;0.98;0.98;;;21.70;96.10;;;;;;5100990;27;20266;-76
2023/06/24 03:42:03;;;;;;;0.60;0.60;;;21.60;96.40;;;;;;5107714;27;20737;-76
2023/06/24 03:44:30;;;;;;;0.90;0.90;;;21.60;96.30;;;;;;5112188;27;20220;-76
2023/06/24 03:46:58;;;;;;;0.75;0.75;;;21.60;96.60;;;;;;5099735;27;20254;-76
2023/06/24 03:49:25;;;;;;;0.68;0.68;;;21.70;96.80;;;;;;5105264;27;20222;-76
2023/06/24 03:51:52;;;;;;;0.77;0.77;;;21.80;96.70;;;;;;5101184;27;20646;-76
2023/06/24 03:54:19;;;;;;;1.00;1.00;;;21.70;96.60;;;;;;5099059;27;20284;-75
2023/06/24 03:56:46;;;;;;;0.82;0.82;;;21.60;96.60;;;;;;5103602;27;20216;-77
2023/06/24 03:59:13;;;;;;;0.95;0.95;;;21.50;96.90;;;;;;5124412;27;20224;-76
2023/06/24 04:01:40;;;;;;;1.75;1.10;;;21.50;97.20;;;;;;5120364;27;20194;-77
2023/06/24 04:04:08;;;;;;;0.95;0.95;;;21.50;97.20;;;;;;5122018;27;20193;-76
2023/06/24 04:06:35;;;;;;;0.90;0.90;;;21.50;97.20;;;;;;5103048;27;20192;-77
2023/06/24 04:09:03;;;;;;;1.13;1.00;;;21.50;97.30;;;;;;5120372;27;20221;-77
2023/06/24 04:11:30;;;;;;;1.00;1.00;;;21.60;97.30;;;;;;5110102;27;20208;-76
2023/06/24 04:13:57;;;;;;;0.95;0.95;;;21.70;97.00;;;;;;5109802;27;20759;-76
2023/06/24 04:16:24;;;;;;;1.50;0.73;;;21.80;97.20;;;;;;5098734;27;20295;-77
2023/06/24 04:18:51;;;;;;;0.75;0.75;;;21.80;97.20;;;;;;5104035;27;20217;-76
2023/06/24 04:21:19;;;;;;;0.73;0.73;;;21.90;97.40;;;;;;5101499;27;20274;-76
2023/06/24 04:23:46;;;;;;;0.82;0.82;;;21.90;97.50;;;;;;5099701;27;20212;-77
2023/06/24 04:26:13;;;;;;;0.75;0.75;;;22.00;97.10;;;;;;5111300;27;20282;-76
2023/06/24 04:28:41;;;;;;;0.88;0.88;;;22.10;97.10;;;;;;5099662;27;20340;-75
2023/06/24 04:31:08;;;;;;;0.77;0.77;;;22.20;97.10;;;;;;5097712;27;20205;-75
2023/06/24 04:33:34;;;;;;;0.73;0.73;;;22.20;97.20;;;;;;5101207;27;20227;-76
2023/06/24 04:36:01;;;;;;;0.70;0.70;;;22.20;97.30;;;;;;5104116;27;20228;-76
2023/06/24 04:38:30;;;;;;;1.70;0.90;;;22.30;97.20;;;;;;5099872;27;20284;-76
2023/06/24 04:40:59;;;;;;;0.80;0.80;;;22.50;97.30;;;;;;5095734;27;20205;-76
2023/06/24 04:43:27;;;;;;;0.80;0.80;;;22.60;97.40;;;;;;5097989;27;20721;-77
2023/06/24 04:45:54;;;;;;;0.80;0.80;;;22.70;97.70;;;;;;5099315;27;20245;-78
2023/06/24 04:48:23;;;;;;;0.82;0.80;;;22.80;97.50;;;;;;5110153;27;20200;-78
2023/06/24 04:50:50;;;;;;;0.85;0.80;;;22.80;97.10;;;;;;5104420;27;20240;-78
2023/06/24 04:53:17;;;;;;;0.70;0.70;;;22.80;97.40;;;;;;5102452;27;20217;-78
2023/06/24 04:55:45;;;;;;;0.80;0.80;;;22.90;97.40;;;;;;5102043;27;21519;-77
2023/06/24 04:58:12;;;;;;;0.70;0.70;;;22.90;97.50;;;;;;5102200;27;20576;-78
2023/06/24 05:00:39;;;;;;;0.70;0.70;;;23.00;97.00;;;;;;5099911;27;20273;-78
2023/06/24 05:03:06;;;;;;;0.85;0.85;;;23.10;96.90;;;;;;5103373;27;20216;-78
2023/06/24 05:05:33;;;;;;;0.63;0.63;;;23.20;97.10;;;;;;5101184;27;20213;-78
2023/06/24 05:08:00;;;;;;;0.73;0.73;;;23.20;96.70;;;;;;5103149;27;20194;-78
2023/06/24 05:10:27;;;;;;;0.60;0.60;;;23.20;97.00;;;;;;5104160;27;20216;-78
2023/06/24 05:12:55;;;;;;;0.70;0.70;;;23.30;96.80;;;;;;5100778;27;20270;-78
2023/06/24 05:15:22;;;;;;;0.75;0.70;;;23.40;97.20;;;;;;5106929;27;20204;-78
2023/06/24 05:17:49;;;;;;;1.15;0.68;;;23.50;96.90;;;;;;5105942;27;20193;-79
2023/06/24 05:20:17;;;;;;;0.70;0.70;;;23.50;97.30;;;;;;5102549;27;20224;-77
2023/06/24 05:22:44;;;;;;;0.70;0.70;;;23.50;97.40;;;;;;5100894;27;20194;-77
2023/06/24 05:25:12;;;;;;;1.35;1.00;;;23.50;97.50;;;;;;5105542;27;20205;-78
2023/06/24 05:27:39;;;;;;;0.82;0.82;;;23.40;97.30;;;;;;5107096;27;20747;-79
2023/06/24 05:30:09;;;;;;;0.90;0.90;;;23.50;96.90;;;;;;5099513;27;20570;-78
2023/06/24 05:32:36;;;;;;;0.88;0.88;;;23.30;96.90;;;;;;5104536;27;20217;-77
2023/06/24 05:35:03;;;;;;;0.90;0.90;;;23.10;97.50;;;;;;5103729;27;20572;-77
2023/06/24 05:37:30;;;;;;;0.90;0.90;;;23.00;97.70;;;;;;5099821;27;20198;-78
2023/06/24 05:40:01;;;;;;;1.10;1.10;;;23.10;97.40;;;;;;5102625;27;20707;-77
2023/06/24 05:42:28;;;;;;;0.68;0.68;;;23.30;97.60;;;;;;5103866;27;20545;-77
2023/06/24 05:44:55;;;;;;;1.38;0.90;;;23.50;97.60;;;;;;5100627;27;20204;-78
2023/06/24 05:47:23;;;;;;;1.98;1.00;;;23.60;97.20;;;;;;5105544;27;20200;-79
2023/06/24 05:49:50;;;;;;;0.90;0.90;;;23.70;97.10;;;;;;5108207;27;20311;-78
2023/06/24 05:52:17;;;;;;;1.13;1.02;;;23.70;97.00;;;;;;5104640;27;20306;-78
2023/06/24 05:54:44;;;;;;;0.75;0.75;;;23.80;97.30;;;;;;5106419;27;20197;-77
2023/06/24 05:57:11;;;;;;;0.93;0.93;;;23.90;97.10;;;;;;5102732;27;20260;-78
2023/06/24 05:59:38;;;;;;;1.20;1.10;;;24.00;97.40;;;;;;5103577;27;20746;-77
2023/06/24 06:02:05;;;;;;;0.90;0.90;;;24.20;97.10;;;;;;5110592;27;20217;-79
2023/06/24 06:04:33;;;;;;;1.00;1.00;;;24.20;96.70;;;;;;5118379;27;20258;-77
2023/06/24 06:07:00;;;;;;;0.90;0.90;;;24.30;96.20;;;;;;5104141;27;20197;-78
2023/06/24 06:09:28;;;;;;;0.73;0.73;;;24.30;96.00;;;;;;5105023;27;20266;-78
2023/06/24 06:11:55;;;;;;;0.90;0.90;;;24.40;96.40;;;;;;5100430;27;20211;-79
2023/06/24 06:14:22;;;;;;;1.45;1.00;;;24.60;96.40;;;;;;5106834;27;20325;-77
2023/06/24 06:16:49;;;;;;;0.88;0.88;;;24.60;95.70;;;;;;5102633;27;20237;-79
2023/06/24 06:19:16;;;;;;;1.40;1.00;;;24.70;96.00;;;;;;5104795;27;20278;-78
2023/06/24 06:21:44;;;;;;;0.90;0.90;;;24.80;95.90;;;;;;5106206;27;20257;-79
2023/06/24 06:24:11;;;;;;;0.77;0.77;;;25.00;96.10;;;;;;5101981;27;20203;-78
2023/06/24 06:26:43;;;;;;;0.95;0.95;;;25.10;96.10;;;;;;5107059;27;20247;-79
2023/06/24 06:29:10;;;;;;;1.58;0.90;;;25.30;95.90;;;;;;5103414;27;20223;-78
2023/06/24 06:31:37;;;;;;;1.05;1.05;;;25.40;95.20;;;;;;5105415;28;20229;-77
2023/06/24 06:34:04;;;;;;;0.95;0.90;;;25.40;95.60;;;;;;5110015;28;20212;-79
2023/06/24 06:36:31;;;;;;;0.60;0.60;;;25.50;95.40;;;;;;5104889;28;20236;-78
2023/06/24 06:39:00;;;;;;;0.88;0.80;;;25.70;95.30;;;;;;5101289;28;20303;-77
2023/06/24 06:41:26;;;;;;;0.88;0.88;;;25.70;95.40;;;;;;5107051;28;20194;-78
2023/06/24 06:43:54;;;;;;;0.65;0.63;;;25.80;95.00;;;;;;5105957;28;20243;-79
2023/06/24 06:46:21;;;;;;;0.60;0.60;;;25.70;95.00;;;;;;5109019;28;20614;-77
2023/06/24 06:48:48;;;;;;;0.82;0.82;;;25.30;95.20;;;;;;5103218;28;20213;-78
2023/06/24 06:51:15;;;;;;;0.75;0.75;;;25.10;95.10;;;;;;5102533;28;20201;-77
2023/06/24 06:53:42;;;;;;;0.60;0.55;;;25.00;95.20;;;;;;5103028;28;20294;-78
2023/06/24 06:56:17;;;;;;;0.75;0.73;;;25.20;95.30;;;;;;5102037;28;20236;-78
2023/06/24 06:58:44;;;;;;;0.93;0.93;;;25.30;95.90;;;;;;5103785;28;20220;-78
2023/06/24 07:01:10;;;;;;;0.75;0.75;;;25.70;95.60;;;;;;5096445;28;20205;-77
2023/06/24 07:03:37;;;;;;;0.65;0.65;;;26.00;95.80;;;;;;5104334;28;20279;-78
2023/06/24 07:06:04;;;;;;;0.85;0.85;;;26.20;95.30;;;;;;5107212;28;20645;-78
2023/06/24 07:08:31;;;;;;;3.63;0.90;;;26.40;94.40;;;;;;5103923;28;20225;-78
2023/06/24 07:10:58;;;;;;;0.90;0.90;;;26.50;94.80;;;;;;5107016;28;20291;-78
2023/06/24 07:13:27;;;;;;;0.70;0.70;;;26.50;94.30;;;;;;5103246;27;20325;-78
2023/06/24 07:15:54;;;;;;;0.80;0.80;;;26.60;94.30;;;;;;5105908;28;20232;-78
2023/06/24 07:18:20;;;;;;;0.70;0.70;;;26.60;94.70;;;;;;5103916;28;20201;-78
2023/06/24 07:20:48;;;;;;;0.80;0.80;;;26.70;94.40;;;;;;5100754;28;20277;-78
2023/06/24 07:23:15;;;;;;;0.70;0.70;;;26.90;94.60;;;;;;5098732;28;21081;-80
2023/06/24 07:25:42;;;;;;;0.73;0.73;;;27.00;93.80;;;;;;5102749;28;20262;-78
2023/06/24 07:28:10;;;;;;;0.98;0.80;;;27.10;94.40;;;;;;5100521;28;20201;-78
2023/06/24 07:30:38;;;;;;;0.68;0.60;;;27.30;94.00;;;;;;5105655;28;20216;-77
2023/06/24 07:33:06;;;;;;;0.70;0.70;;;27.30;93.10;;;;;;5103698;28;20350;-81
2023/06/24 07:35:33;;;;;;;0.68;0.65;;;27.40;93.40;;;;;;5103886;28;20201;-79
2023/06/24 07:38:00;;;;;;;1.10;1.00;;;27.60;93.90;;;;;;5104339;28;20285;-79
2023/06/24 07:40:27;;;;;;;0.95;0.95;;;27.80;93.40;;;;;;5112191;27;20260;-79
2023/06/24 07:42:55;;;;;;;0.85;0.70;;;27.80;93.10;;;;;;5109077;27;20710;-80
2023/06/24 07:45:21;;;;;;;0.90;0.85;;;27.90;92.60;;;;;;5107246;27;20624;-80
2023/06/24 07:47:50;;;;;;;0.77;0.77;;;28.00;92.80;;;;;;5114150;27;20225;-80
2023/06/24 07:50:17;;;;;;;0.68;0.68;;;28.00;91.80;;;;;;5124099;27;20244;-81
2023/06/24 07:52:44;;;;;;;0.80;0.80;;;28.00;91.90;;;;;;5120249;27;20193;-81
2023/06/24 07:55:11;;;;;;;0.77;0.77;;;28.00;91.00;;;;;;5115178;27;20251;-79
2023/06/24 07:57:38;;;;;;;0.77;0.77;;;28.10;91.60;;;;;;5120541;27;20227;-82
2023/06/24 08:00:11;;;;;;;0.80;0.80;;;28.30;92.40;;;;;;5117207;27;20277;-80
2023/06/24 08:02:37;;;;;;;0.80;0.80;;;28.40;92.10;;;;;;5107701;27;20201;-80
2023/06/24 08:05:07;;;;;;;0.80;0.80;;;28.70;92.50;;;;;;5106359;27;20219;-79
2023/06/24 08:07:34;;;;;;;1.13;0.85;;;28.80;91.80;;;;;;5108746;27;20208;-78
2023/06/24 08:10:00;;;;;;;0.90;0.90;;;29.00;91.00;;;;;;5105720;27;20218;-79
2023/06/24 08:12:27;;;;;;;0.70;0.70;;;28.90;91.00;;;;;;5102291;27;20282;-80
2023/06/24 08:14:54;;;;;;;1.50;1.02;;;28.80;91.60;;;;;;5106690;27;20621;-79
2023/06/24 08:17:21;;;;;;;0.80;0.80;;;28.80;92.00;;;;;;5110570;27;20353;-79
2023/06/24 08:19:50;;;;;;;0.75;0.75;;;28.90;91.70;;;;;;5107750;27;20585;-81
2023/06/24 08:22:18;;;;;;;0.80;0.80;;;28.90;90.40;;;;;;5104237;28;20232;-79
2023/06/24 08:24:45;;;;;;;1.13;1.00;;;28.90;90.40;;;;;;5104361;28;20604;-81
2023/06/24 08:27:12;;;;;;;1.27;0.98;;;29.00;91.00;;;;;;5103273;27;20201;-78
2023/06/24 08:29:39;;;;;;;0.70;0.70;;;29.00;90.80;;;;;;5100631;27;20227;-77
2023/06/24 08:32:07;;;;;;;1.05;0.80;;;29.20;91.20;;;;;;5099110;27;20202;-77
2023/06/24 08:34:34;;;;;;;0.90;0.77;;;29.30;90.80;;;;;;5098582;27;20881;-76
2023/06/24 08:37:01;;;;;;;0.90;0.90;;;29.40;91.40;;;;;;5102105;27;20502;-76
2023/06/24 08:39:29;;;;;;;1.05;0.88;;;29.40;90.60;;;;;;5098057;27;20233;-78
2023/06/24 08:41:56;;;;;;;0.95;0.90;;;29.20;88.70;;;;;;5099247;27;20205;-76
2023/06/24 08:44:23;;;;;;;1.10;1.00;;;29.20;89.60;;;;;;5105352;27;20254;-77
2023/06/24 08:46:50;;;;;;;3.72;0.80;;;29.20;90.80;;;;;;5103457;27;20283;-76
2023/06/24 08:49:28;;;;;;;1.15;1.05;;;29.30;90.40;;;;;;5100225;27;20223;-75
2023/06/24 08:52:01;;;;;;;1.10;1.00;;;29.30;91.00;;;;;;5099827;27;20200;-77
2023/06/24 08:54:29;;;;;;;1.00;0.95;;;29.20;89.90;;;;;;5099190;27;20411;-79
2023/06/24 08:56:56;;;;;;;0.75;0.75;;;29.30;90.90;;;;;;5099667;27;20232;-77
2023/06/24 08:59:23;;;;;;;1.25;1.15;;;29.30;92.40;;;;;;5100382;27;20248;-79
2023/06/24 09:01:51;;;;;;;0.80;0.80;;;29.50;90.40;;;;;;5097173;27;20288;-78
2023/06/24 09:04:18;;;;;;;1.20;1.10;;;29.50;90.50;;;;;;5097943;27;20283;-79
2023/06/24 09:06:45;;;;;;;1.20;1.10;;;29.50;89.90;;;;;;5098802;28;20636;-77
2023/06/24 09:09:19;;;;;;;1.02;1.00;;;29.40;88.00;;;;;;5091569;27;20303;-75
2023/06/24 09:11:54;;;;;;;2.25;0.93;;;29.60;90.10;;;;;;5094162;27;20913;-78
2023/06/24 09:14:21;;;;;;;1.50;1.10;;;29.60;85.90;;;;;;5093351;27;20282;-78
2023/06/24 09:16:55;;;;;;;1.17;1.08;;;29.40;88.00;;;;;;5096896;27;20193;-77
2023/06/24 09:19:23;;;;;;;1.05;0.98;;;29.50;89.10;;;;;;5100613;27;20272;-77
2023/06/24 09:21:51;;;;;;;0.80;0.80;;;29.60;89.90;;;;;;5093839;27;20290;-75
2023/06/24 09:24:18;;;;;;;1.13;1.02;;;29.90;89.80;;;;;;5098955;27;20209;-77
2023/06/24 09:26:45;;;;;;;1.10;0.98;;;30.10;90.00;;;;;;5100977;27;20201;-77
2023/06/24 09:29:15;;;;;;;1.00;1.00;;;30.00;86.00;;;;;;5100764;27;20297;-78
2023/06/24 09:31:49;;;;;;;1.20;1.10;;;30.10;86.90;;;;;;5096323;27;20209;-78
2023/06/24 09:34:17;;;;;;;1.25;1.10;;;29.80;83.00;;;;;;5094540;27;20344;-77
2023/06/24 09:36:45;;;;;;;1.23;1.13;;;29.40;82.60;;;;;;5099430;27;20201;-77
2023/06/24 09:39:12;;;;;;;1.88;1.13;;;29.40;83.90;;;;;;5094005;27;20209;-77
2023/06/24 09:41:42;;;;;;;1.30;1.10;;;29.20;85.20;;;;;;5098151;27;20196;-77
2023/06/24 09:44:11;;;;;;;1.67;1.27;;;29.30;85.00;;;;;;5096190;28;20195;-79
2023/06/24 09:46:41;;;;;;;1.55;1.38;;;29.30;86.60;;;;;;5099268;27;20209;-78
2023/06/24 09:49:08;;;;;;;1.20;1.10;;;29.60;85.60;;;;;;5108773;27;20854;-79
2023/06/24 09:51:40;;;;;;;1.00;1.00;;;29.60;84.10;;;;;;5103924;27;20257;-77
2023/06/24 09:54:07;;;;;;;1.20;1.10;;;29.80;83.30;;;;;;5094857;27;20217;-78
2023/06/24 09:56:37;;;;;;;1.40;1.30;;;30.00;84.70;;;;;;5097701;27;20209;-78
2023/06/24 09:59:06;;;;;;;1.58;1.20;;;30.10;85.40;;;;;;5101577;27;20224;-77
2023/06/24 10:01:36;;;;;;;1.05;0.98;;;30.20;84.70;;;;;;5091059;27;20201;-77
2023/06/24 10:04:05;;;;;;;1.38;1.27;;;30.20;82.90;;;;;;5096955;27;20205;-79
2023/06/24 10:06:33;;;;;;;1.50;1.35;;;30.20;84.90;;;;;;5093105;27;20738;-77
2023/06/24 10:09:01;;;;;;;1.23;1.10;;;30.50;86.20;;;;;;5093868;27;20309;-77
2023/06/24 10:11:28;;;;;;;1.33;1.23;;;30.80;85.00;;;;;;5094626;27;20236;-78
2023/06/24 10:13:55;;;;;;;1.42;1.33;;;30.80;83.20;;;;;;5096390;27;20305;-78
2023/06/24 10:16:22;;;;;;;1.13;1.10;;;30.50;81.90;;;;;;5094661;27;20236;-78
2023/06/24 10:18:49;;;;;;;1.45;1.35;;;30.30;81.70;;;;;;5095964;27;20220;-77
2023/06/24 10:21:18;;;;;;;1.00;1.00;;;30.40;83.50;;;;;;5094467;27;20209;-78
2023/06/24 10:23:53;;;;;;;1.20;1.10;;;30.60;85.00;;;;;;5094405;28;20228;-78
2023/06/24 10:26:25;;;;;;;1.42;1.30;;;30.80;84.40;;;;;;5095098;27;20646;-78
2023/06/24 10:29:14;;;;;;;1.40;1.30;;;31.00;81.70;;;;;;5092541;27;20227;-77
2023/06/24 10:31:55;;;;;;;1.52;1.30;;;30.90;82.00;;;;;;5094723;28;20208;-78
2023/06/24 10:34:27;;;;;;;1.40;1.30;;;30.80;82.10;;;;;;5097182;27;20244;-78
2023/06/24 10:36:56;;;;;;;1.50;1.40;;;31.10;84.20;;;;;;5095272;28;20241;-79
2023/06/24 10:39:37;;;;;;;1.60;1.42;;;31.10;78.60;;;;;;5097489;28;20244;-78
2023/06/24 10:42:47;;;;;;;1.45;1.35;;;30.80;84.80;;;;;;5096160;28;20254;-78
2023/06/24 10:45:19;;;;;;;1.73;1.33;;;31.10;84.90;;;;;;5095402;28;20269;-77
2023/06/24 10:47:47;;;;;;;1.45;1.35;;;31.30;84.00;;;;;;5094811;28;20766;-77
2023/06/24 10:50:17;;;;;;;2.03;1.42;;;31.40;81.50;;;;;;5097260;28;20365;-77
2023/06/24 10:52:46;;;;;;;1.65;1.55;;;31.30;81.30;;;;;;5099217;28;20235;-77
2023/06/24 10:55:15;;;;;;;1.40;1.30;;;31.20;80.20;;;;;;5098620;28;20223;-78
2023/06/24 10:57:42;;;;;;;1.40;1.30;;;30.90;79.00;;;;;;5095813;28;20208;-77
2023/06/24 11:00:10;;;;;;;1.48;1.38;;;30.80;77.40;;;;;;5097546;27;20299;-78
2023/06/24 11:02:37;;;;;;;1.20;1.13;;;30.90;82.80;;;;;;5100950;28;20197;-78
2023/06/24 11:05:06;;;;;;;1.50;1.40;;;31.10;81.00;;;;;;5092296;28;20284;-77
2023/06/24 11:07:35;;;;;;;1.75;1.30;;;31.30;83.20;;;;;;5095333;28;21267;-78
2023/06/24 11:10:05;;;;;;;1.30;1.13;;;31.20;77.50;;;;;;5097115;28;20302;-78
2023/06/24 11:12:34;;;;;;;1.20;1.10;;;31.10;78.50;;;;;;5095494;28;20307;-77
2023/06/24 11:15:02;;;;;;;1.30;1.20;;;31.10;80.70;;;;;;5100009;27;20220;-78
2023/06/24 11:17:29;;;;;;;1.58;1.48;;;31.20;79.40;;;;;;5105678;27;20244;-78
2023/06/24 11:19:58;;;;;;;1.42;1.33;;;31.40;79.60;;;;;;5103924;27;20956;-77
2023/06/24 11:22:26;;;;;;;1.02;1.02;;;31.50;79.30;;;;;;5103492;27;20309;-76
2023/06/24 11:24:53;;;;;;;1.48;1.38;;;31.60;80.50;;;;;;5108258;27;20228;-75
2023/06/24 11:27:27;;;;;;;1.08;1.05;;;31.70;79.60;;;;;;5100617;27;20288;-76
2023/06/24 11:29:55;;;;;;;1.40;1.30;;;31.70;77.10;;;;;;5098491;27;21155;-76
2023/06/24 11:32:23;;;;;;;1.40;1.30;;;31.70;79.30;;;;;;5113421;27;20243;-77
2023/06/24 11:34:50;;;;;;;1.40;1.30;;;31.70;77.10;;;;;;5117885;27;20241;-77
2023/06/24 11:37:19;;;;;;;1.45;1.35;;;31.70;78.50;;;;;;5115716;27;20201;-78
2023/06/24 11:39:46;;;;;;;1.75;1.42;;;32.00;81.00;;;;;;5102790;27;20221;-76
2023/06/24 11:42:15;;;;;;;1.30;1.20;;;31.90;76.90;;;;;;5113533;27;20208;-77
2023/06/24 11:44:46;;;;;;;1.50;1.40;;;31.80;75.80;;;;;;5106952;27;20277;-76
2023/06/24 11:47:13;;;;;;;2.25;1.60;;;31.80;75.40;;;;;;5102071;27;20864;-77
2023/06/24 11:49:49;;;;;;;1.60;1.50;;;31.70;77.50;;;;;;5105975;27;20274;-75
2023/06/24 11:52:16;;;;;;;1.50;1.40;;;31.70;75.00;;;;;;5099755;27;20200;-76
2023/06/24 11:54:44;;;;;;;1.65;1.55;;;31.60;77.10;;;;;;5097627;27;20831;-76
2023/06/24 11:57:12;;;;;;;1.52;1.42;;;31.70;76.50;;;;;;5093325;27;20331;-77
2023/06/24 11:59:39;;;;;;;1.58;1.48;;;31.50;74.20;;;;;;5099305;27;20971;-76
2023/06/24 12:02:08;;;;;;;1.48;1.38;;;31.70;76.70;;;;;;5090112;27;20227;-75
2023/06/24 12:04:36;;;;;;;1.52;1.42;;;32.00;77.50;;;;;;5094684;27;20189;-75
2023/06/24 12:07:04;;;;;;;1.45;1.35;;;32.20;76.40;;;;;;5100032;27;20290;-76
2023/06/24 12:09:31;;;;;;;2.75;1.35;;;32.40;76.20;;;;;;5091598;27;20220;-76
2023/06/24 12:11:58;;;;;;;2.50;1.52;;;32.40;76.80;;;;;;5092954;27;20200;-80
2023/06/24 12:14:25;;;;;;;1.35;1.25;;;32.60;77.10;;;;;;5096220;27;20783;-79
2023/06/24 12:16:52;;;;;;;1.63;1.20;;;32.60;77.40;;;;;;5093570;27;20303;-78
2023/06/24 12:19:21;;;;;;;1.38;1.10;;;32.70;77.50;;;;;;5098396;27;20292;-77
2023/06/24 12:21:48;;;;;;;1.40;1.30;;;33.00;78.60;;;;;;5095161;27;20212;-76
2023/06/24 12:24:15;;;;;;;2.33;1.35;;;33.00;74.80;;;;;;5093403;27;20228;-76
2023/06/24 12:26:42;;;;;;;1.38;1.27;;;32.50;74.80;;;;;;5090602;27;20280;-76
2023/06/24 12:29:09;;;;;;;1.38;1.27;;;32.30;74.50;;;;;;5090526;27;20220;-77
2023/06/24 12:31:36;;;;;;;1.40;1.30;;;32.30;75.20;;;;;;5093591;27;20270;-77
2023/06/24 12:34:05;;;;;;;1.77;1.38;;;32.20;73.00;;;;;;5094403;27;21604;-79
2023/06/24 12:36:33;;;;;;;1.20;1.05;;;32.00;74.40;;;;;;5099426;27;20442;-80
2023/06/24 12:39:00;;;;;;;1.30;1.20;;;32.10;74.40;;;;;;5098086;27;20755;-79
2023/06/24 12:41:28;;;;;;;1.50;1.40;;;32.20;73.30;;;;;;5099211;27;20242;-80
2023/06/24 12:43:55;;;;;;;1.50;1.40;;;32.10;73.80;;;;;;5098642;27;20193;-80
2023/06/24 12:46:21;;;;;;;1.10;1.10;;;32.10;73.20;;;;;;5099328;27;20189;-79
2023/06/24 12:48:48;;;;;;;0.88;0.88;;;32.20;75.10;;;;;;5103081;27;20878;-80
2023/06/24 12:51:15;;;;;;;1.15;1.10;;;32.50;75.80;;;;;;5099171;27;20593;-81
2023/06/24 12:53:44;;;;;;;1.52;1.42;;;32.60;75.10;;;;;;5100626;27;20274;-80